Time;durP1;ratioP1;P1;durP2;ratioP2;P2;SDS_P1;SDS_P2;PMS_P1;PMS_P2;Temp;Humidity;BMP_temperature;BMP_pressure;BME280_temperature;BME280_humidity;BME280_pressure;Samples;Min_cycle;Max_cycle;Signal;HPM_P1;HPM_P2
2023/05/02 00:00:22;;;;;;;23.05;7.22;;;12.20;99.90;;;;;;5031440;28;20057;-73
2023/05/02 00:02:48;;;;;;;22.23;7.90;;;12.10;99.90;;;;;;5030747;28;20040;-73
2023/05/02 00:05:14;;;;;;;15.15;5.25;;;12.10;99.90;;;;;;5030264;28;20022;-75
2023/05/02 00:07:39;;;;;;;20.05;6.35;;;12.10;99.90;;;;;;5027979;28;20596;-73
2023/05/02 00:10:07;;;;;;;24.48;7.72;;;12.00;99.90;;;;;;5031847;28;20038;-73
2023/05/02 00:12:33;;;;;;;21.52;6.80;;;12.00;99.90;;;;;;5031738;28;20033;-73
2023/05/02 00:14:59;;;;;;;22.10;6.68;;;11.90;99.90;;;;;;5032137;28;20038;-72
2023/05/02 00:17:26;;;;;;;17.77;6.13;;;11.90;99.90;;;;;;5033084;28;20025;-74
2023/05/02 00:19:52;;;;;;;22.02;5.00;;;11.90;99.90;;;;;;5032791;28;20084;-73
2023/05/02 00:22:18;;;;;;;19.15;3.72;;;11.90;99.90;;;;;;5032695;28;20079;-75
2023/05/02 00:24:44;;;;;;;14.05;3.88;;;11.80;99.90;;;;;;5030875;28;20030;-77
2023/05/02 00:27:10;;;;;;;13.45;3.25;;;11.80;99.90;;;;;;5031173;28;20066;-74
2023/05/02 00:29:35;;;;;;;15.02;3.38;;;11.80;99.90;;;;;;5033024;28;20075;-73
2023/05/02 00:32:05;;;;;;;10.52;2.83;;;11.80;99.90;;;;;;5028143;28;20026;-74
2023/05/02 00:34:31;;;;;;;15.60;2.90;;;11.80;99.90;;;;;;5029831;28;20037;-75
2023/05/02 00:36:57;;;;;;;13.23;3.40;;;11.80;99.90;;;;;;5031630;28;20827;-75
2023/05/02 00:39:24;;;;;;;15.10;3.78;;;11.70;99.90;;;;;;5032488;28;20029;-74
2023/05/02 00:42:01;;;;;;;17.88;3.65;;;11.70;99.90;;;;;;5031700;28;20045;-73
2023/05/02 00:44:27;;;;;;;17.45;3.22;;;11.60;99.90;;;;;;5028887;28;20485;-74
2023/05/02 00:46:54;;;;;;;17.48;3.67;;;11.60;99.90;;;;;;5037724;28;20079;-75
2023/05/02 00:49:20;;;;;;;13.75;3.92;;;11.60;99.90;;;;;;5035012;28;20025;-77
2023/05/02 00:51:45;;;;;;;13.48;3.30;;;11.50;99.90;;;;;;5041780;28;20024;-75
2023/05/02 00:54:14;;;;;;;10.73;2.83;;;11.50;99.90;;;;;;5045218;28;20045;-76
2023/05/02 00:56:40;;;;;;;11.23;2.95;;;11.40;99.90;;;;;;5048483;28;20381;-74
2023/05/02 00:59:07;;;;;;;5.40;1.85;;;11.40;99.90;;;;;;5036742;28;20026;-74
2023/05/02 01:01:48;;;;;;;7.80;2.08;;;11.40;99.90;;;;;;5045989;28;20104;-75
2023/05/02 01:04:27;;;;;;;7.87;2.20;;;11.40;99.90;;;;;;5044132;28;20107;-76
2023/05/02 01:07:01;;;;;;;8.13;2.20;;;11.40;99.90;;;;;;5036557;28;20481;-77
2023/05/02 01:09:56;;;;;;;12.68;2.58;;;11.40;99.90;;;;;;5047705;28;20036;-76
2023/05/02 01:12:37;;;;;;;10.52;2.58;;;11.30;99.90;;;;;;5045883;28;20040;-75
2023/05/02 01:15:06;;;;;;;11.50;2.22;;;11.30;99.90;;;;;;5036176;28;20526;-74
2023/05/02 01:17:33;;;;;;;7.13;1.80;;;11.30;99.90;;;;;;5046665;28;20041;-74
2023/05/02 01:20:03;;;;;;;7.53;2.10;;;11.30;99.90;;;;;;5042622;28;20047;-75
2023/05/02 01:22:30;;;;;;;8.07;2.17;;;11.20;99.90;;;;;;5038809;28;20051;-76
2023/05/02 01:25:17;;;;;;;6.40;1.70;;;11.20;99.90;;;;;;5034434;28;20026;-74
2023/05/02 01:28:04;;;;;;;8.25;2.55;;;11.20;99.90;;;;;;5031053;28;20815;-74
2023/05/02 01:30:32;;;;;;;12.85;2.83;;;11.20;99.90;;;;;;5040674;28;20021;-74
2023/05/02 01:32:59;;;;;;;7.22;2.25;;;11.20;99.90;;;;;;5050255;28;20025;-76
2023/05/02 01:35:26;;;;;;;11.05;2.30;;;11.10;99.90;;;;;;5037455;28;20021;-74
2023/05/02 01:37:53;;;;;;;7.03;1.98;;;11.20;99.90;;;;;;5043878;28;20109;-74
2023/05/02 01:40:21;;;;;;;7.60;1.80;;;11.20;99.90;;;;;;5044681;28;20040;-76
2023/05/02 01:42:49;;;;;;;14.38;3.00;;;11.20;99.90;;;;;;5036304;28;20025;-77
2023/05/02 01:45:16;;;;;;;10.68;2.53;;;11.20;99.90;;;;;;5019897;28;20029;-73
2023/05/02 01:47:43;;;;;;;15.13;2.88;;;11.20;99.90;;;;;;5045186;28;20079;-74
2023/05/02 01:50:11;;;;;;;12.40;2.55;;;11.20;99.90;;;;;;5043089;28;20439;-77
2023/05/02 01:52:38;;;;;;;11.15;2.20;;;11.10;99.90;;;;;;5037523;28;20029;-74
2023/05/02 01:55:08;;;;;;;15.32;2.72;;;11.10;99.90;;;;;;5048456;28;20435;-74
2023/05/02 01:57:35;;;;;;;10.82;2.35;;;11.10;99.90;;;;;;5036935;28;20388;-74
2023/05/02 02:00:03;;;;;;;4.57;2.10;;;11.10;99.90;;;;;;5042349;28;20029;-74
2023/05/02 02:02:30;;;;;;;11.65;2.05;;;11.10;99.90;;;;;;5045894;28;20404;-74
2023/05/02 02:04:58;;;;;;;7.43;1.55;;;11.10;99.90;;;;;;5035698;28;20036;-74
2023/05/02 02:07:24;;;;;;;11.70;2.03;;;11.10;99.90;;;;;;5045951;28;20433;-76
2023/05/02 02:09:49;;;;;;;6.28;2.38;;;11.00;99.90;;;;;;5040528;28;20108;-74
2023/05/02 02:12:23;;;;;;;10.60;2.10;;;11.10;99.90;;;;;;5039928;28;20029;-77
2023/05/02 02:15:13;;;;;;;8.85;2.05;;;11.00;99.90;;;;;;5048197;28;20041;-74
2023/05/02 02:17:44;;;;;;;11.82;2.65;;;11.10;99.90;;;;;;5038903;28;20090;-73
2023/05/02 02:20:12;;;;;;;12.95;2.10;;;11.00;99.90;;;;;;5040527;28;20113;-74
2023/05/02 02:22:39;;;;;;;10.85;2.30;;;11.10;99.90;;;;;;5046777;28;20035;-74
2023/05/02 02:25:11;;;;;;;8.57;2.10;;;11.00;99.90;;;;;;5033098;28;20029;-74
2023/05/02 02:27:39;;;;;;;8.85;1.90;;;11.00;99.90;;;;;;5037558;28;20049;-74
2023/05/02 02:30:05;;;;;;;8.18;2.38;;;11.00;99.90;;;;;;5041323;28;20041;-74
2023/05/02 02:32:31;;;;;;;8.15;2.05;;;11.00;99.90;;;;;;5045439;28;20040;-74
2023/05/02 02:34:58;;;;;;;15.15;2.15;;;11.00;99.90;;;;;;5035225;28;20048;-73
2023/05/02 02:38:09;;;;;;;7.90;1.60;;;11.00;99.90;;;;;;5046598;28;20117;-74
2023/05/02 02:40:55;;;;;;;8.75;2.47;;;11.00;99.90;;;;;;5040925;28;20469;-75
2023/05/02 02:43:31;;;;;;;11.88;2.10;;;11.00;99.90;;;;;;5020538;28;20029;-74
2023/05/02 02:46:11;;;;;;;9.15;2.70;;;10.90;99.90;;;;;;5040589;28;20587;-74
2023/05/02 02:48:55;;;;;;;7.85;2.00;;;10.90;99.90;;;;;;5036563;28;20462;-74
2023/05/02 02:51:21;;;;;;;4.85;1.85;;;10.90;99.90;;;;;;5022604;28;20033;-73
2023/05/02 02:54:10;;;;;;;9.30;1.70;;;10.90;99.90;;;;;;5043497;28;20033;-74
2023/05/02 02:56:41;;;;;;;11.20;2.00;;;10.90;99.90;;;;;;5045941;28;20040;-77
2023/05/02 02:59:30;;;;;;;7.78;1.90;;;10.90;99.90;;;;;;5034646;28;20113;-74
2023/05/02 03:02:08;;;;;;;6.70;1.88;;;10.90;99.90;;;;;;5041482;28;20030;-77
2023/05/02 03:04:37;;;;;;;11.75;2.17;;;10.90;99.90;;;;;;5045789;28;20025;-74
2023/05/02 03:07:03;;;;;;;9.23;2.30;;;10.90;99.90;;;;;;5034652;28;20408;-77
2023/05/02 03:09:49;;;;;;;12.70;2.85;;;10.80;99.90;;;;;;5045913;28;20983;-73
2023/05/02 03:12:14;;;;;;;10.68;1.85;;;10.80;99.90;;;;;;5042761;28;20025;-73
2023/05/02 03:14:40;;;;;;;10.35;2.25;;;10.80;99.90;;;;;;5035923;28;20044;-76
2023/05/02 03:17:09;;;;;;;6.63;1.90;;;10.70;99.90;;;;;;5046056;28;20039;-72
2023/05/02 03:19:36;;;;;;;7.85;1.90;;;10.60;99.90;;;;;;5037469;28;20029;-73
2023/05/02 03:22:02;;;;;;;6.85;1.98;;;10.60;99.90;;;;;;5041069;28;20033;-74
2023/05/02 03:24:27;;;;;;;13.38;2.15;;;10.50;99.90;;;;;;5032382;28;20021;-75
2023/05/02 03:26:57;;;;;;;12.55;3.30;;;10.60;99.90;;;;;;5044115;28;20050;-78
2023/05/02 03:29:23;;;;;;;9.32;2.20;;;10.60;99.90;;;;;;5046673;28;20029;-75
2023/05/02 03:31:49;;;;;;;9.90;2.50;;;10.60;99.90;;;;;;5039391;28;20037;-76
2023/05/02 03:34:15;;;;;;;11.48;2.58;;;10.60;99.90;;;;;;5038395;28;20167;-75
2023/05/02 03:36:40;;;;;;;13.05;2.92;;;10.70;99.90;;;;;;5030896;28;20032;-73
2023/05/02 03:39:06;;;;;;;14.70;2.70;;;10.70;99.90;;;;;;5045086;28;20115;-73
2023/05/02 03:41:31;;;;;;;12.15;2.30;;;10.70;99.90;;;;;;5048573;28;20040;-74
2023/05/02 03:43:57;;;;;;;10.10;2.10;;;10.70;99.90;;;;;;5044269;28;20036;-75
2023/05/02 03:46:23;;;;;;;14.00;3.65;;;10.60;99.90;;;;;;5041331;28;20029;-74
2023/05/02 03:48:49;;;;;;;11.93;2.40;;;10.60;99.90;;;;;;5050582;28;20381;-73
2023/05/02 03:51:15;;;;;;;8.13;2.15;;;10.50;99.90;;;;;;5037756;28;20044;-72
2023/05/02 03:53:40;;;;;;;9.18;2.17;;;10.50;99.90;;;;;;5048484;28;20067;-73
2023/05/02 03:56:07;;;;;;;13.38;2.60;;;10.40;99.90;;;;;;5053878;28;20035;-75
2023/05/02 03:58:35;;;;;;;16.52;3.00;;;10.40;99.90;;;;;;5040194;28;20461;-73
2023/05/02 04:01:00;;;;;;;9.27;2.13;;;10.30;99.90;;;;;;5050888;28;20029;-73
2023/05/02 04:03:27;;;;;;;11.68;2.30;;;10.30;99.90;;;;;;5039485;28;20052;-73
2023/05/02 04:05:53;;;;;;;8.95;2.38;;;10.20;99.90;;;;;;5045938;28;20056;-72
2023/05/02 04:08:18;;;;;;;11.07;2.63;;;10.20;99.90;;;;;;5046777;28;20079;-73
2023/05/02 04:10:44;;;;;;;15.07;2.88;;;10.10;99.90;;;;;;5038799;28;20029;-74
2023/05/02 04:13:10;;;;;;;11.63;2.80;;;10.10;99.90;;;;;;5050675;28;20073;-74
2023/05/02 04:15:36;;;;;;;13.00;3.13;;;10.10;99.90;;;;;;5041205;28;20025;-76
2023/05/02 04:18:02;;;;;;;15.32;3.00;;;10.10;99.90;;;;;;5044215;28;20029;-76
2023/05/02 04:20:28;;;;;;;10.27;2.90;;;10.00;99.90;;;;;;5039569;28;20036;-77
2023/05/02 04:22:54;;;;;;;11.18;3.65;;;10.10;99.90;;;;;;5050392;28;20072;-73
2023/05/02 04:25:20;;;;;;;19.30;4.22;;;10.10;99.90;;;;;;5038723;28;20052;-72
2023/05/02 04:27:45;;;;;;;14.57;3.05;;;10.10;99.90;;;;;;5046152;28;20049;-73
2023/05/02 04:30:11;;;;;;;16.70;3.42;;;10.10;99.90;;;;;;5044867;28;20029;-75
2023/05/02 04:32:37;;;;;;;17.52;3.55;;;10.10;99.90;;;;;;5038373;28;20069;-76
2023/05/02 04:35:03;;;;;;;14.27;2.78;;;10.10;99.90;;;;;;5049010;28;20821;-73
2023/05/02 04:37:29;;;;;;;13.95;2.90;;;10.10;99.90;;;;;;5039670;28;20072;-76
2023/05/02 04:39:54;;;;;;;12.00;2.78;;;10.10;99.90;;;;;;5044852;28;20119;-76
2023/05/02 04:42:20;;;;;;;10.40;2.25;;;10.10;99.90;;;;;;5046432;28;20037;-73
2023/05/02 04:44:47;;;;;;;14.35;2.85;;;10.10;99.90;;;;;;5037684;28;20417;-74
2023/05/02 04:47:12;;;;;;;10.65;2.47;;;10.10;99.90;;;;;;5050071;28;20108;-75
2023/05/02 04:49:38;;;;;;;13.30;2.95;;;10.10;99.90;;;;;;5040283;28;20112;-72
2023/05/02 04:52:03;;;;;;;13.65;2.97;;;10.20;99.90;;;;;;5043556;28;20033;-73
2023/05/02 04:54:32;;;;;;;13.52;3.05;;;10.20;99.90;;;;;;5046366;28;20044;-74
2023/05/02 04:56:58;;;;;;;16.15;3.22;;;10.20;99.90;;;;;;5036891;28;20025;-72
2023/05/02 04:59:23;;;;;;;13.40;2.63;;;10.20;99.90;;;;;;5048448;28;20133;-73
2023/05/02 05:01:49;;;;;;;12.05;2.90;;;10.30;99.90;;;;;;5041506;28;20121;-73
2023/05/02 05:04:14;;;;;;;13.27;2.90;;;10.30;99.90;;;;;;5041302;28;20442;-73
2023/05/02 05:06:40;;;;;;;11.15;2.67;;;10.30;99.90;;;;;;5048719;28;20025;-71
2023/05/02 05:09:06;;;;;;;9.27;2.50;;;10.30;99.90;;;;;;5036494;28;20408;-75
2023/05/02 05:11:31;;;;;;;12.20;2.33;;;10.30;99.90;;;;;;5047651;28;20535;-74
2023/05/02 05:13:57;;;;;;;15.18;3.28;;;10.20;99.90;;;;;;5032455;28;20037;-73
2023/05/02 05:16:22;;;;;;;15.18;2.85;;;10.20;99.90;;;;;;5045790;28;20029;-73
2023/05/02 05:18:48;;;;;;;10.48;3.17;;;10.20;99.90;;;;;;5036325;28;20033;-74
2023/05/02 05:21:13;;;;;;;13.13;2.42;;;10.20;99.90;;;;;;5031686;28;20427;-73
2023/05/02 05:23:44;;;;;;;11.82;2.35;;;10.20;99.90;;;;;;5034041;28;20060;-75
2023/05/02 05:26:11;;;;;;;9.10;2.58;;;10.20;99.90;;;;;;5042963;28;20111;-73
2023/05/02 05:28:38;;;;;;;9.55;2.35;;;10.20;99.90;;;;;;5037249;28;20049;-74
2023/05/02 05:31:12;;;;;;;8.52;2.22;;;10.20;99.90;;;;;;5049368;28;20567;-74
2023/05/02 05:33:38;;;;;;;9.32;2.10;;;10.20;99.90;;;;;;5039288;28;20037;-74
2023/05/02 05:36:11;;;;;;;8.45;2.28;;;10.30;99.90;;;;;;5042441;28;20378;-74
2023/05/02 05:38:37;;;;;;;14.25;2.78;;;10.30;99.90;;;;;;5041777;28;20362;-73
2023/05/02 05:41:04;;;;;;;14.20;2.92;;;10.40;99.90;;;;;;5049244;28;20032;-76
2023/05/02 05:43:30;;;;;;;12.70;3.17;;;10.50;99.90;;;;;;5037749;28;20455;-73
2023/05/02 05:45:56;;;;;;;10.85;2.40;;;10.60;99.90;;;;;;5040552;28;20022;-73
2023/05/02 05:48:22;;;;;;;13.23;2.63;;;10.60;99.90;;;;;;5045296;28;20120;-74
2023/05/02 05:50:48;;;;;;;12.02;2.00;;;10.60;99.90;;;;;;5036565;28;20108;-73
2023/05/02 05:53:14;;;;;;;10.20;2.20;;;10.60;99.90;;;;;;5028026;28;20045;-73
2023/05/02 05:55:40;;;;;;;12.98;2.67;;;10.60;99.90;;;;;;5045486;28;20466;-73
2023/05/02 05:58:06;;;;;;;13.25;3.05;;;10.50;99.90;;;;;;5042651;28;20021;-73
2023/05/02 06:00:36;;;;;;;12.82;2.38;;;10.50;99.90;;;;;;5037600;28;20029;-73
2023/05/02 06:03:02;;;;;;;10.82;2.35;;;10.50;99.90;;;;;;5047090;28;20129;-73
2023/05/02 06:05:28;;;;;;;11.32;2.78;;;10.60;99.90;;;;;;5037839;28;20398;-73
2023/05/02 06:07:53;;;;;;;12.27;2.63;;;10.60;99.90;;;;;;5048853;28;20029;-73
2023/05/02 06:10:19;;;;;;;12.60;3.45;;;10.70;99.90;;;;;;5038906;28;20040;-73
2023/05/02 06:12:44;;;;;;;9.15;2.33;;;10.80;99.90;;;;;;5047545;28;20147;-73
2023/05/02 06:15:10;;;;;;;5.82;1.85;;;10.90;99.90;;;;;;5035531;28;20044;-72
2023/05/02 06:17:36;;;;;;;6.05;1.52;;;11.00;99.90;;;;;;5045480;28;20032;-74
2023/05/02 06:20:01;;;;;;;9.98;2.50;;;11.00;99.90;;;;;;5042107;28;20037;-73
2023/05/02 06:22:27;;;;;;;11.40;2.50;;;11.00;99.90;;;;;;5049459;28;20462;-73
2023/05/02 06:24:52;;;;;;;11.68;2.30;;;11.10;99.90;;;;;;5035469;28;20059;-73
2023/05/02 06:27:18;;;;;;;6.68;2.47;;;11.10;99.90;;;;;;5046993;28;20064;-72
2023/05/02 06:29:44;;;;;;;9.75;1.92;;;11.20;99.90;;;;;;5039766;28;20047;-73
2023/05/02 06:32:09;;;;;;;9.50;1.85;;;11.20;99.90;;;;;;5040912;28;20153;-73
2023/05/02 06:34:35;;;;;;;11.02;2.40;;;11.20;99.90;;;;;;5046350;28;20040;-76
2023/05/02 06:37:00;;;;;;;7.20;1.90;;;11.30;99.90;;;;;;5033822;28;20029;-73
2023/05/02 06:39:26;;;;;;;9.70;2.80;;;11.60;99.90;;;;;;5044615;28;20099;-73
2023/05/02 06:41:57;;;;;;;9.70;2.38;;;11.90;99.90;;;;;;5043330;28;20090;-73
2023/05/02 06:44:22;;;;;;;12.40;2.10;;;12.10;99.90;;;;;;5044847;28;20040;-73
2023/05/02 06:46:48;;;;;;;9.02;1.90;;;12.30;99.90;;;;;;5035351;28;20029;-74
2023/05/02 06:49:14;;;;;;;11.93;4.18;;;12.50;99.90;;;;;;5019172;28;20025;-72
2023/05/02 06:51:40;;;;;;;11.45;2.90;;;12.70;99.90;;;;;;5045182;28;20140;-73
2023/05/02 06:54:06;;;;;;;6.03;1.67;;;13.10;99.90;;;;;;5042824;28;20037;-73
2023/05/02 06:56:31;;;;;;;6.72;1.50;;;13.80;98.40;;;;;;5049120;28;20527;-75
2023/05/02 06:58:57;;;;;;;8.30;2.55;;;14.30;96.90;;;;;;5033720;28;20025;-72
2023/05/02 07:01:23;;;;;;;6.45;1.40;;;14.40;96.90;;;;;;5045649;28;20032;-73
2023/05/02 07:03:48;;;;;;;2.40;0.95;;;14.70;95.60;;;;;;5039628;28;20048;-72
2023/05/02 07:06:14;;;;;;;6.38;2.63;;;14.90;93.90;;;;;;5039692;28;20461;-75
2023/05/02 07:08:39;;;;;;;4.03;1.27;;;15.10;93.20;;;;;;5046476;28;20568;-74
2023/05/02 07:11:05;;;;;;;4.72;1.10;;;14.90;92.70;;;;;;5033491;28;20389;-74
2023/05/02 07:13:30;;;;;;;5.88;1.27;;;14.70;93.10;;;;;;5048620;28;20541;-74
2023/05/02 07:15:56;;;;;;;5.07;1.40;;;14.90;93.10;;;;;;5044971;28;20107;-74
2023/05/02 07:18:22;;;;;;;10.05;3.10;;;15.30;92.60;;;;;;5042542;28;20423;-74
2023/05/02 07:20:48;;;;;;;3.42;1.17;;;15.70;92.60;;;;;;5051551;28;20028;-73
2023/05/02 07:23:14;;;;;;;5.30;1.88;;;15.60;91.60;;;;;;5017402;28;20490;-72
2023/05/02 07:25:39;;;;;;;7.40;1.70;;;15.20;92.70;;;;;;5034277;28;20426;-74
2023/05/02 07:28:05;;;;;;;6.10;1.80;;;15.00;92.80;;;;;;5045073;28;20434;-73
2023/05/02 07:30:31;;;;;;;9.07;1.45;;;14.70;92.60;;;;;;5040982;28;20029;-73
2023/05/02 07:32:57;;;;;;;7.15;1.90;;;14.50;92.90;;;;;;5051269;28;20431;-73
2023/05/02 07:35:22;;;;;;;9.40;2.15;;;14.40;92.70;;;;;;5039940;28;20051;-72
2023/05/02 07:37:48;;;;;;;7.63;2.22;;;14.30;92.60;;;;;;5046425;28;20093;-75
2023/05/02 07:40:14;;;;;;;9.82;2.20;;;14.10;92.80;;;;;;5047904;28;20040;-73
2023/05/02 07:42:43;;;;;;;12.13;2.40;;;14.00;92.80;;;;;;5038314;28;20124;-74
2023/05/02 07:45:09;;;;;;;3.28;1.33;;;13.90;92.90;;;;;;5049504;28;20603;-76
2023/05/02 07:47:35;;;;;;;7.55;1.80;;;13.90;92.70;;;;;;5041085;28;20511;-73
2023/05/02 07:50:02;;;;;;;12.45;4.05;;;14.00;93.00;;;;;;5043682;28;20120;-73
2023/05/02 07:52:28;;;;;;;18.40;4.38;;;14.10;92.70;;;;;;5048314;28;20032;-74
2023/05/02 07:54:53;;;;;;;4.93;1.30;;;14.40;93.10;;;;;;5037902;28;20045;-74
2023/05/02 07:57:19;;;;;;;12.60;1.92;;;14.90;92.10;;;;;;5049288;28;20493;-73
2023/05/02 07:59:45;;;;;;;7.68;1.35;;;15.20;91.70;;;;;;5042487;28;20110;-75
2023/05/02 08:02:12;;;;;;;7.82;2.35;;;15.10;91.50;;;;;;5042644;28;20367;-73
2023/05/02 08:04:38;;;;;;;7.15;1.58;;;14.80;91.40;;;;;;5049616;28;20021;-74
2023/05/02 08:07:04;;;;;;;10.15;2.85;;;14.40;91.50;;;;;;5036015;28;20026;-72
2023/05/02 08:09:30;;;;;;;14.38;5.82;;;14.20;91.30;;;;;;5038928;28;20036;-73
2023/05/02 08:11:55;;;;;;;7.82;2.80;;;14.20;91.60;;;;;;5045474;28;20127;-76
2023/05/02 08:14:21;;;;;;;14.55;5.80;;;14.40;92.10;;;;;;5046280;28;20362;-72
2023/05/02 08:16:47;;;;;;;13.50;4.57;;;14.80;91.40;;;;;;5037524;28;20037;-73
2023/05/02 08:19:12;;;;;;;12.32;4.63;;;15.30;91.00;;;;;;5049756;28;20040;-72
2023/05/02 08:21:38;;;;;;;7.63;2.45;;;15.90;90.10;;;;;;5041209;28;20119;-73
2023/05/02 08:24:04;;;;;;;6.20;2.25;;;16.40;90.10;;;;;;5041985;28;20457;-73
2023/05/02 08:26:29;;;;;;;8.20;2.58;;;16.70;89.20;;;;;;5033943;28;20557;-73
2023/05/02 08:28:55;;;;;;;8.73;3.38;;;16.90;88.70;;;;;;5034648;28;20049;-72
2023/05/02 08:31:20;;;;;;;7.45;1.83;;;16.90;88.10;;;;;;5034373;28;20034;-72
2023/05/02 08:33:46;;;;;;;5.10;1.80;;;16.90;88.90;;;;;;5033781;28;20033;-71
2023/05/02 08:36:14;;;;;;;3.97;1.13;;;16.90;87.40;;;;;;5032618;28;20030;-73
2023/05/02 08:38:40;;;;;;;6.60;2.45;;;16.60;86.90;;;;;;5034019;28;20465;-72
2023/05/02 08:41:17;;;;;;;10.68;2.78;;;16.20;88.20;;;;;;5034153;28;20025;-76
2023/05/02 08:43:44;;;;;;;4.85;1.63;;;16.00;88.50;;;;;;5033806;28;20120;-75
2023/05/02 08:46:11;;;;;;;4.78;1.65;;;15.80;89.00;;;;;;5033734;28;20036;-73
2023/05/02 08:48:42;;;;;;;5.55;1.48;;;15.70;89.60;;;;;;5034078;28;20072;-72
2023/05/02 08:51:13;;;;;;;7.25;2.33;;;15.60;89.40;;;;;;5049116;28;20079;-73
2023/05/02 08:53:39;;;;;;;8.73;2.20;;;15.50;89.70;;;;;;5033620;28;20048;-73
2023/05/02 08:56:09;;;;;;;5.40;2.17;;;15.60;90.00;;;;;;5034033;28;20048;-73
2023/05/02 08:58:39;;;;;;;10.13;2.78;;;15.90;89.70;;;;;;5033914;28;20454;-73
2023/05/02 09:01:22;;;;;;;8.43;1.98;;;16.10;88.80;;;;;;5033981;28;20029;-74
2023/05/02 09:03:47;;;;;;;8.25;1.98;;;16.10;88.90;;;;;;5032465;28;20362;-75
2023/05/02 09:06:18;;;;;;;11.57;2.97;;;16.10;88.40;;;;;;5034240;28;20037;-73
2023/05/02 09:08:51;;;;;;;7.22;1.88;;;16.10;88.70;;;;;;5046594;28;20448;-73
2023/05/02 09:11:20;;;;;;;7.97;2.10;;;16.20;88.30;;;;;;5040416;28;20112;-73
2023/05/02 09:13:49;;;;;;;7.70;2.33;;;16.50;87.00;;;;;;5044939;28;20096;-72
2023/05/02 09:16:21;;;;;;;10.40;3.50;;;16.80;86.50;;;;;;5043469;28;20029;-72
2023/05/02 09:18:56;;;;;;;11.77;3.67;;;17.00;87.40;;;;;;5048218;28;20025;-72
2023/05/02 09:21:34;;;;;;;12.70;2.30;;;17.10;86.10;;;;;;5036790;28;20033;-72
2023/05/02 09:24:00;;;;;;;4.35;1.77;;;16.90;85.20;;;;;;5053423;28;20488;-73
2023/05/02 09:26:33;;;;;;;9.40;1.92;;;17.10;84.40;;;;;;5042182;28;20018;-74
2023/05/02 09:29:04;;;;;;;9.57;2.28;;;17.80;84.10;;;;;;5042923;28;20076;-72
2023/05/02 09:31:38;;;;;;;8.45;1.50;;;18.40;82.50;;;;;;5049160;28;20466;-73
2023/05/02 09:34:15;;;;;;;3.53;1.30;;;18.50;80.40;;;;;;5040296;28;20100;-75
2023/05/02 09:36:43;;;;;;;7.15;2.38;;;18.90;79.10;;;;;;5039226;28;20025;-72
2023/05/02 09:39:14;;;;;;;11.98;2.47;;;18.60;79.90;;;;;;5039895;28;20158;-75
2023/05/02 09:41:44;;;;;;;4.00;1.45;;;18.60;81.00;;;;;;5048843;28;20052;-74
2023/05/02 09:44:11;;;;;;;4.78;1.40;;;19.00;78.90;;;;;;5041382;28;20021;-73
2023/05/02 09:46:45;;;;;;;5.32;1.50;;;20.10;76.40;;;;;;5040575;28;20022;-74
2023/05/02 09:49:11;;;;;;;4.95;1.35;;;21.20;75.10;;;;;;5047777;28;20048;-75
2023/05/02 09:51:37;;;;;;;6.13;1.85;;;22.30;72.30;;;;;;5034132;28;20481;-75
2023/05/02 09:54:03;;;;;;;8.63;2.38;;;21.80;73.50;;;;;;5044485;28;20041;-74
2023/05/02 09:56:28;;;;;;;9.35;1.50;;;21.40;74.10;;;;;;5037116;28;20025;-75
2023/05/02 09:59:15;;;;;;;7.57;2.33;;;21.70;72.60;;;;;;5044681;28;20029;-73
2023/05/02 10:01:41;;;;;;;7.65;2.30;;;22.50;71.70;;;;;;5047950;28;20519;-73
2023/05/02 10:04:15;;;;;;;5.05;2.10;;;22.90;70.90;;;;;;5046883;28;20044;-74
2023/05/02 10:06:42;;;;;;;8.30;2.22;;;23.10;70.10;;;;;;5040022;28;20025;-73
2023/05/02 10:09:10;;;;;;;4.50;1.70;;;23.60;68.80;;;;;;5048938;28;20021;-73
2023/05/02 10:11:39;;;;;;;8.38;2.78;;;23.70;67.40;;;;;;5034646;28;20115;-72
2023/05/02 10:14:08;;;;;;;8.65;2.10;;;24.50;67.80;;;;;;5035840;28;20119;-75
2023/05/02 10:16:40;;;;;;;8.30;1.75;;;24.50;65.40;;;;;;5034756;28;20029;-74
2023/05/02 10:19:10;;;;;;;11.02;2.50;;;23.80;65.30;;;;;;5049537;28;20025;-71
2023/05/02 10:21:38;;;;;;;5.45;1.95;;;22.90;66.10;;;;;;5028120;28;20032;-72
2023/05/02 10:24:04;;;;;;;8.40;1.70;;;22.40;67.10;;;;;;5028292;28;20033;-72
2023/05/02 10:26:33;;;;;;;5.05;2.20;;;22.60;66.10;;;;;;5037472;28;20032;-72
2023/05/02 10:29:00;;;;;;;3.92;1.90;;;22.70;65.70;;;;;;5032201;28;20120;-73
2023/05/02 10:31:32;;;;;;;4.88;1.60;;;23.10;65.40;;;;;;5043022;28;20038;-73
2023/05/02 10:34:00;;;;;;;8.77;2.28;;;23.90;64.00;;;;;;5038317;28;20083;-72
2023/05/02 10:36:27;;;;;;;8.48;2.17;;;24.90;63.00;;;;;;5042770;28;20067;-72
2023/05/02 10:38:54;;;;;;;8.27;2.08;;;25.50;61.10;;;;;;5037622;28;20038;-72
2023/05/02 10:41:25;;;;;;;9.07;2.35;;;25.70;60.70;;;;;;5048801;28;20036;-74
2023/05/02 10:43:51;;;;;;;8.37;2.07;;;26.20;60.10;;;;;;5046391;28;20029;-74
2023/05/02 10:46:33;;;;;;;7.30;1.48;;;26.50;59.20;;;;;;5039222;28;20036;-75
2023/05/02 10:49:07;;;;;;;6.65;1.83;;;27.00;57.80;;;;;;5045723;28;20559;-74
2023/05/02 10:51:37;;;;;;;9.48;2.30;;;27.30;57.10;;;;;;5033659;28;20049;-73
2023/05/02 10:54:15;;;;;;;8.02;1.98;;;27.60;57.00;;;;;;5042668;28;20041;-73
2023/05/02 10:57:04;;;;;;;7.65;2.08;;;27.70;55.80;;;;;;5041343;28;20108;-73
2023/05/02 10:59:38;;;;;;;5.72;1.65;;;27.40;55.50;;;;;;5048563;28;20095;-75
2023/05/02 11:02:26;;;;;;;8.70;2.20;;;27.30;56.20;;;;;;5015575;28;20049;-73
2023/05/02 11:05:06;;;;;;;6.47;2.00;;;27.50;55.30;;;;;;5040451;28;20032;-73
2023/05/02 11:07:33;;;;;;;7.55;2.20;;;27.50;54.60;;;;;;5038892;28;20036;-73
2023/05/02 11:10:17;;;;;;;5.40;1.90;;;27.70;54.80;;;;;;5044589;28;20025;-73
2023/05/02 11:12:47;;;;;;;6.47;1.65;;;28.00;54.10;;;;;;5035336;28;20573;-73
2023/05/02 11:15:33;;;;;;;6.38;2.00;;;28.50;54.10;;;;;;5048160;28;20512;-75
2023/05/02 11:18:02;;;;;;;6.35;1.92;;;28.70;53.40;;;;;;5021161;28;20049;-74
2023/05/02 11:20:29;;;;;;;8.30;2.10;;;28.20;53.10;;;;;;5042736;28;20025;-73
2023/05/02 11:22:56;;;;;;;7.70;2.00;;;27.60;53.80;;;;;;5036586;28;20018;-73
2023/05/02 11:25:36;;;;;;;6.00;2.15;;;27.40;54.00;;;;;;5017754;28;20065;-76
2023/05/02 11:28:06;;;;;;;9.80;2.22;;;27.40;54.00;;;;;;5043801;28;20505;-75
2023/05/02 11:30:44;;;;;;;6.53;1.60;;;27.80;53.70;;;;;;5041936;28;20406;-74
2023/05/02 11:33:10;;;;;;;5.82;1.95;;;28.30;53.60;;;;;;5032775;28;20025;-75
2023/05/02 11:35:41;;;;;;;11.13;2.58;;;28.80;53.10;;;;;;5046877;28;20019;-76
2023/05/02 11:38:12;;;;;;;7.25;2.30;;;29.40;52.70;;;;;;5037065;28;20017;-74
2023/05/02 11:40:38;;;;;;;6.78;2.10;;;29.40;52.80;;;;;;5040553;28;20407;-73
2023/05/02 11:43:15;;;;;;;5.65;2.00;;;30.00;52.50;;;;;;5023224;28;20030;-74
2023/05/02 11:45:41;;;;;;;5.72;1.83;;;30.40;51.30;;;;;;5021077;28;20036;-73
2023/05/02 11:48:09;;;;;;;11.05;2.80;;;30.30;51.20;;;;;;5042839;28;20037;-73
2023/05/02 11:50:46;;;;;;;11.65;2.20;;;30.10;51.30;;;;;;5042854;28;20025;-73
2023/05/02 11:53:13;;;;;;;7.60;2.20;;;30.20;51.20;;;;;;5034418;28;20052;-73
2023/05/02 11:55:49;;;;;;;10.25;2.40;;;30.00;51.00;;;;;;5035236;28;20025;-73
2023/05/02 11:58:17;;;;;;;5.00;2.20;;;29.40;51.00;;;;;;5041866;28;20022;-74
2023/05/02 12:00:45;;;;;;;7.78;2.58;;;29.40;52.30;;;;;;5040862;28;20026;-73
2023/05/02 12:03:30;;;;;;;12.13;2.45;;;29.30;51.10;;;;;;5035428;28;20157;-73
2023/05/02 12:06:07;;;;;;;7.85;2.30;;;28.90;51.70;;;;;;5044875;28;20048;-73
2023/05/02 12:08:33;;;;;;;9.55;2.33;;;28.50;51.70;;;;;;5046541;28;20469;-73
2023/05/02 12:10:58;;;;;;;8.15;2.20;;;27.70;51.80;;;;;;5039088;28;20134;-72
2023/05/02 12:13:25;;;;;;;8.68;2.40;;;27.10;52.10;;;;;;5049061;28;20025;-75
2023/05/02 12:15:52;;;;;;;7.95;2.30;;;27.00;52.50;;;;;;5044091;28;20385;-74
2023/05/02 12:18:22;;;;;;;9.57;2.80;;;27.40;52.60;;;;;;5044571;28;20801;-73
2023/05/02 12:20:48;;;;;;;11.27;2.28;;;27.90;52.30;;;;;;5044617;28;20043;-73
2023/05/02 12:23:14;;;;;;;10.93;2.28;;;28.20;51.60;;;;;;5038181;28;20132;-74
2023/05/02 12:25:42;;;;;;;9.93;2.45;;;28.40;51.50;;;;;;5042393;28;20107;-73
2023/05/02 12:28:09;;;;;;;10.30;2.22;;;28.40;51.60;;;;;;5041556;28;20041;-74
2023/05/02 12:30:39;;;;;;;7.18;2.08;;;28.40;51.50;;;;;;5054219;28;20025;-73
2023/05/02 12:33:06;;;;;;;10.27;2.33;;;28.40;51.40;;;;;;5038423;28;20086;-72
2023/05/02 12:35:33;;;;;;;9.15;2.80;;;28.20;51.40;;;;;;5028573;28;20037;-72
2023/05/02 12:38:22;;;;;;;7.18;2.45;;;27.90;51.30;;;;;;5046914;28;20024;-73
2023/05/02 12:40:57;;;;;;;9.15;2.20;;;27.50;52.00;;;;;;5048071;28;20017;-72
2023/05/02 12:43:22;;;;;;;8.88;2.47;;;26.90;51.50;;;;;;5044134;28;20041;-73
2023/05/02 12:45:49;;;;;;;6.15;1.70;;;26.40;52.20;;;;;;5037014;28;20096;-74
2023/05/02 12:48:26;;;;;;;6.85;2.15;;;25.90;51.90;;;;;;5037675;28;20022;-72
2023/05/02 12:50:53;;;;;;;8.10;1.98;;;25.30;53.30;;;;;;5029264;28;20504;-74